Time;durP1;ratioP1;P1;durP2;ratioP2;P2;SDS_P1;SDS_P2;PMS_P1;PMS_P2;Temp;Humidity;BMP_temperature;BMP_pressure;BME280_temperature;BME280_humidity;BME280_pressure;Samples;Min_cycle;Max_cycle;Signal;HPM_P1;HPM_P2
2022/03/17 00:00:35;;;;;;;29.77;22.00;;;8.80;99.90;;;;;;5176007;27;20245;-51
2022/03/17 00:03:05;;;;;;;31.67;22.87;;;8.80;99.90;;;;;;5176285;27;20198;-51
2022/03/17 00:05:33;;;;;;;30.00;21.43;;;8.80;99.90;;;;;;5176130;27;20197;-51
2022/03/17 00:08:01;;;;;;;33.27;22.27;;;8.80;99.90;;;;;;5172218;27;20203;-51
2022/03/17 00:10:29;;;;;;;29.83;22.33;;;8.80;99.90;;;;;;5155494;27;20264;-51
2022/03/17 00:12:58;;;;;;;29.80;21.57;;;8.70;99.90;;;;;;5154510;27;20240;-51
2022/03/17 00:15:26;;;;;;;33.63;22.33;;;8.70;99.90;;;;;;5155154;27;20213;-52
2022/03/17 00:17:54;;;;;;;31.57;22.57;;;8.60;99.90;;;;;;5155344;27;20632;-51
2022/03/17 00:20:23;;;;;;;28.57;21.63;;;8.60;99.90;;;;;;5155027;27;20671;-52
2022/03/17 00:22:51;;;;;;;27.77;21.73;;;8.50;99.90;;;;;;5154181;27;20807;-52
2022/03/17 00:25:19;;;;;;;30.30;23.20;;;8.50;99.90;;;;;;5154766;27;20202;-51
2022/03/17 00:27:47;;;;;;;31.77;22.37;;;8.40;99.90;;;;;;5154823;27;20210;-51
2022/03/17 00:30:17;;;;;;;31.80;22.93;;;8.40;99.90;;;;;;5154788;27;20210;-51
2022/03/17 00:32:45;;;;;;;31.20;23.27;;;8.40;99.90;;;;;;5154335;27;20227;-51
2022/03/17 00:37:59;;;;;;;31.07;22.73;;;8.40;99.90;;;;;;5175708;27;20189;-51
2022/03/17 00:40:27;;;;;;;35.47;23.13;;;8.40;99.90;;;;;;5175260;27;20678;-51
2022/03/17 00:42:55;;;;;;;32.87;23.47;;;8.40;99.90;;;;;;5175353;27;20198;-51
2022/03/17 00:45:26;;;;;;;32.03;23.30;;;8.40;99.90;;;;;;5175296;27;20214;-51
2022/03/17 00:47:54;;;;;;;31.70;23.80;;;8.40;99.90;;;;;;5175527;27;20210;-51
2022/03/17 00:50:23;;;;;;;31.70;23.53;;;8.40;99.90;;;;;;5175272;27;20226;-55
2022/03/17 00:52:52;;;;;;;34.03;23.77;;;8.40;99.90;;;;;;5174772;27;20202;-51
2022/03/17 00:55:21;;;;;;;30.50;23.10;;;8.50;99.90;;;;;;5175260;27;20206;-52
2022/03/17 00:57:49;;;;;;;34.50;24.60;;;8.50;99.90;;;;;;5175305;27;20206;-51
2022/03/17 01:00:21;;;;;;;35.07;24.63;;;8.50;99.90;;;;;;5174403;27;20202;-51
2022/03/17 01:02:53;;;;;;;35.13;25.53;;;8.50;99.90;;;;;;5173885;27;20193;-51
2022/03/17 01:05:23;;;;;;;33.90;25.40;;;8.50;99.90;;;;;;5174742;27;20202;-52
2022/03/17 01:07:52;;;;;;;35.70;26.13;;;8.50;99.90;;;;;;5158217;27;20217;-51
2022/03/17 01:10:21;;;;;;;35.50;26.83;;;8.60;99.90;;;;;;5174717;27;20205;-52
2022/03/17 01:12:50;;;;;;;37.43;26.97;;;8.60;99.90;;;;;;5173933;27;20205;-51
2022/03/17 01:15:20;;;;;;;36.40;27.70;;;8.60;99.90;;;;;;5174912;27;20235;-51
2022/03/17 01:17:51;;;;;;;38.50;27.90;;;8.60;99.90;;;;;;5175001;27;20262;-51
2022/03/17 01:20:19;;;;;;;37.10;28.33;;;8.60;99.90;;;;;;5173546;27;20706;-51
2022/03/17 01:22:47;;;;;;;36.67;27.73;;;8.60;99.90;;;;;;5174443;27;20550;-51
2022/03/17 01:25:15;;;;;;;36.77;27.93;;;8.60;99.90;;;;;;5174390;27;20201;-51
2022/03/17 01:27:43;;;;;;;39.97;29.20;;;8.60;99.90;;;;;;5174437;27;20205;-52
2022/03/17 01:30:12;;;;;;;37.90;27.03;;;8.60;99.90;;;;;;5174547;27;20223;-51
2022/03/17 01:32:40;;;;;;;36.47;27.60;;;8.60;99.90;;;;;;5174376;27;20205;-52
2022/03/17 01:35:11;;;;;;;34.20;27.47;;;8.60;99.90;;;;;;5169870;27;20214;-52
2022/03/17 01:37:39;;;;;;;36.13;28.47;;;8.60;99.90;;;;;;5153127;27;20575;-51
2022/03/17 01:40:09;;;;;;;36.57;28.23;;;8.60;99.90;;;;;;5153630;27;20793;-51
2022/03/17 01:42:39;;;;;;;36.17;27.80;;;8.60;99.90;;;;;;5152985;27;20202;-51
2022/03/17 01:45:09;;;;;;;38.63;28.67;;;8.60;99.90;;;;;;5153545;27;20229;-52
2022/03/17 01:47:38;;;;;;;37.23;29.60;;;8.60;99.90;;;;;;5153695;27;20257;-51
2022/03/17 01:50:08;;;;;;;41.27;30.03;;;8.60;99.90;;;;;;5151905;27;20202;-51
2022/03/17 01:52:38;;;;;;;41.57;29.53;;;8.60;99.90;;;;;;5153163;27;20198;-51
2022/03/17 01:55:09;;;;;;;38.43;28.77;;;8.60;99.90;;;;;;5153282;27;20357;-51
2022/03/17 01:57:38;;;;;;;39.03;29.90;;;8.60;99.90;;;;;;5152587;27;20651;-51
2022/03/17 02:00:09;;;;;;;38.20;28.73;;;8.60;99.90;;;;;;5169974;27;20194;-52
2022/03/17 02:02:37;;;;;;;36.60;28.73;;;8.60;99.90;;;;;;5173497;27;20246;-52
2022/03/17 02:05:06;;;;;;;35.77;29.40;;;8.60;99.90;;;;;;5174055;27;20201;-52
2022/03/17 02:07:34;;;;;;;38.80;29.13;;;8.60;99.90;;;;;;5173485;27;20222;-51
2022/03/17 02:10:05;;;;;;;38.60;29.33;;;8.70;99.90;;;;;;5173750;27;20238;-52
2022/03/17 02:15:19;;;;;;;41.33;30.17;;;8.70;99.90;;;;;;5173765;27;20277;-52
2022/03/17 02:17:47;;;;;;;34.30;28.03;;;8.70;99.90;;;;;;5173907;27;20201;-52
2022/03/17 02:20:16;;;;;;;36.40;28.67;;;8.70;99.90;;;;;;5173464;27;20208;-52
2022/03/17 02:22:47;;;;;;;41.00;29.90;;;8.70;99.90;;;;;;5172766;27;20718;-52
2022/03/17 02:25:36;;;;;;;37.27;29.30;;;8.70;99.90;;;;;;5173575;27;20230;-51
2022/03/17 02:28:06;;;;;;;40.13;30.13;;;8.70;99.90;;;;;;5173505;27;20213;-51
2022/03/17 02:30:36;;;;;;;39.13;29.57;;;8.60;99.90;;;;;;5173101;27;20219;-51
2022/03/17 02:33:07;;;;;;;40.07;30.67;;;8.60;99.90;;;;;;5173283;27;20233;-52
2022/03/17 02:35:37;;;;;;;39.37;29.73;;;8.60;99.90;;;;;;5165552;27;20207;-52
2022/03/17 02:38:07;;;;;;;41.40;29.17;;;8.60;99.90;;;;;;5153055;27;20202;-51
2022/03/17 02:40:38;;;;;;;38.47;29.73;;;8.60;99.90;;;;;;5152306;27;20662;-51
2022/03/17 02:43:06;;;;;;;40.60;30.37;;;8.60;99.90;;;;;;5152407;27;20186;-51
2022/03/17 02:45:35;;;;;;;37.80;30.60;;;8.60;99.90;;;;;;5151877;27;20663;-51
2022/03/17 02:48:05;;;;;;;39.67;31.13;;;8.60;99.90;;;;;;5152875;27;20262;-51
2022/03/17 02:50:33;;;;;;;41.77;31.57;;;8.60;99.90;;;;;;5150954;27;20210;-51
2022/03/17 02:53:05;;;;;;;37.60;29.30;;;8.70;99.90;;;;;;5152021;27;20198;-51
2022/03/17 02:55:36;;;;;;;43.53;31.87;;;8.70;99.90;;;;;;5152054;27;20232;-51
2022/03/17 02:58:05;;;;;;;38.70;30.43;;;8.70;99.90;;;;;;5152843;27;20275;-51
2022/03/17 03:00:34;;;;;;;41.13;31.37;;;8.70;99.90;;;;;;5172696;27;20684;-51
2022/03/17 03:03:03;;;;;;;41.73;32.53;;;8.70;99.90;;;;;;5172514;27;20212;-51
2022/03/17 03:05:31;;;;;;;46.43;32.03;;;8.70;99.90;;;;;;5173283;27;20201;-51
2022/03/17 03:07:59;;;;;;;39.03;30.50;;;8.60;99.90;;;;;;5173118;27;20232;-51
2022/03/17 03:10:27;;;;;;;42.00;30.93;;;8.70;99.90;;;;;;5173415;27;20211;-52
2022/03/17 03:12:57;;;;;;;41.37;32.03;;;8.70;99.90;;;;;;5172815;27;20577;-51
2022/03/17 03:15:25;;;;;;;41.20;31.70;;;8.70;99.90;;;;;;5172722;27;20222;-52
2022/03/17 03:17:54;;;;;;;40.83;32.17;;;8.70;99.90;;;;;;5172996;27;20202;-52
2022/03/17 03:20:23;;;;;;;42.60;32.43;;;8.70;99.90;;;;;;5172921;27;20731;-52
2022/03/17 03:22:52;;;;;;;45.93;33.67;;;8.70;99.90;;;;;;5172157;27;20201;-51
2022/03/17 03:25:20;;;;;;;41.37;31.73;;;8.70;99.90;;;;;;5173302;27;20236;-51
2022/03/17 03:27:48;;;;;;;41.40;32.33;;;8.70;99.90;;;;;;5172881;27;20205;-51
2022/03/17 03:30:18;;;;;;;39.57;31.90;;;8.80;99.90;;;;;;5172857;27;20198;-51
2022/03/17 03:32:47;;;;;;;41.47;32.30;;;8.80;99.90;;;;;;5172409;27;20202;-52
2022/03/17 03:38:02;;;;;;;40.97;33.07;;;8.90;99.90;;;;;;5173118;27;20236;-51
2022/03/17 03:40:30;;;;;;;39.50;32.50;;;8.90;99.90;;;;;;5172501;27;20226;-52
2022/03/17 03:42:58;;;;;;;39.37;31.90;;;8.90;99.90;;;;;;5173474;27;20254;-51
2022/03/17 03:45:28;;;;;;;39.83;31.67;;;8.90;99.90;;;;;;5175886;27;20195;-51
2022/03/17 03:47:56;;;;;;;39.70;31.77;;;8.90;99.90;;;;;;5176461;27;20202;-51
2022/03/17 03:50:25;;;;;;;41.33;31.07;;;8.90;99.90;;;;;;5174792;27;20209;-52
2022/03/17 03:52:53;;;;;;;40.80;32.33;;;9.00;99.90;;;;;;5176188;27;20207;-51
2022/03/17 03:55:21;;;;;;;41.57;31.20;;;8.90;99.90;;;;;;5176502;27;20217;-52
2022/03/17 03:57:50;;;;;;;41.03;32.10;;;8.90;99.90;;;;;;5175931;27;20700;-52
2022/03/17 04:00:22;;;;;;;39.07;31.73;;;8.90;99.90;;;;;;5176478;27;20197;-51
2022/03/17 04:02:51;;;;;;;39.90;31.77;;;8.90;99.90;;;;;;5175979;27;20206;-51
2022/03/17 04:05:22;;;;;;;37.90;31.83;;;8.90;99.90;;;;;;5175950;27;20238;-52
2022/03/17 04:07:51;;;;;;;38.17;31.93;;;8.90;99.90;;;;;;5174934;27;20201;-51
2022/03/17 04:10:22;;;;;;;39.93;31.50;;;8.90;99.90;;;;;;5155410;27;20243;-51
2022/03/17 04:12:50;;;;;;;38.90;31.60;;;8.90;99.90;;;;;;5154597;27;20202;-51
2022/03/17 04:15:19;;;;;;;40.13;32.00;;;8.90;99.90;;;;;;5154931;27;20766;-52
2022/03/17 04:17:49;;;;;;;43.50;33.17;;;8.80;99.90;;;;;;5154889;27;20205;-52
2022/03/17 04:20:19;;;;;;;39.90;32.23;;;8.80;99.90;;;;;;5154999;27;20202;-52
2022/03/17 04:22:47;;;;;;;37.83;30.93;;;8.90;99.90;;;;;;5154473;27;20250;-52
2022/03/17 04:25:15;;;;;;;40.63;31.93;;;8.80;99.90;;;;;;5155438;27;20198;-52
2022/03/17 04:27:43;;;;;;;42.57;32.63;;;8.80;99.90;;;;;;5154679;27;20687;-51
2022/03/17 04:30:12;;;;;;;38.50;31.20;;;8.80;99.90;;;;;;5155124;27;20271;-52
2022/03/17 04:32:40;;;;;;;43.07;33.50;;;8.80;99.90;;;;;;5154618;27;20584;-52
2022/03/17 04:35:09;;;;;;;39.87;32.40;;;8.80;99.90;;;;;;5158211;27;20209;-52
2022/03/17 04:37:39;;;;;;;39.90;32.60;;;8.80;99.90;;;;;;5175483;27;20257;-52
2022/03/17 04:40:08;;;;;;;41.83;32.63;;;8.80;99.90;;;;;;5175458;27;20258;-51
2022/03/17 04:42:36;;;;;;;41.77;33.03;;;8.80;99.90;;;;;;5175038;27;20227;-51
2022/03/17 04:45:04;;;;;;;40.40;32.20;;;8.80;99.90;;;;;;5175625;27;20208;-52
2022/03/17 04:47:32;;;;;;;39.93;32.87;;;8.80;99.90;;;;;;5175208;27;20304;-51
2022/03/17 04:50:00;;;;;;;43.17;32.67;;;8.80;99.90;;;;;;5174314;27;20250;-52
2022/03/17 04:55:15;;;;;;;44.07;33.57;;;8.70;99.90;;;;;;5175355;27;20270;-52
2022/03/17 04:57:46;;;;;;;43.67;33.43;;;8.70;99.90;;;;;;5175109;27;20258;-52
2022/03/17 05:00:15;;;;;;;40.63;32.40;;;8.70;99.90;;;;;;5175496;27;20254;-51
2022/03/17 05:02:43;;;;;;;42.07;33.07;;;8.70;99.90;;;;;;5174521;27;20620;-51
2022/03/17 05:05:11;;;;;;;46.13;34.57;;;8.70;99.90;;;;;;5158174;27;20210;-51
2022/03/17 05:07:39;;;;;;;43.13;32.93;;;8.70;99.90;;;;;;5154125;27;20270;-51
2022/03/17 05:10:09;;;;;;;41.97;33.27;;;8.70;99.90;;;;;;5154117;27;20202;-51
2022/03/17 05:12:39;;;;;;;43.13;33.57;;;8.70;99.90;;;;;;5153444;27;20202;-51
2022/03/17 05:15:08;;;;;;;40.70;32.63;;;8.70;99.90;;;;;;5154193;27;20629;-52
2022/03/17 05:17:39;;;;;;;43.57;33.10;;;8.70;99.90;;;;;;5153648;27;20226;-51
2022/03/17 05:20:10;;;;;;;41.63;33.73;;;8.70;99.90;;;;;;5153788;27;20209;-51
2022/03/17 05:22:39;;;;;;;44.53;33.77;;;8.70;99.90;;;;;;5153579;27;20213;-51
2022/03/17 05:25:09;;;;;;;43.10;34.07;;;8.70;99.90;;;;;;5153835;27;20207;-51
2022/03/17 05:27:39;;;;;;;43.50;33.67;;;8.70;99.90;;;;;;5170358;27;20229;-51
2022/03/17 05:30:13;;;;;;;42.20;33.23;;;8.70;99.90;;;;;;5174442;27;20202;-51
2022/03/17 05:32:42;;;;;;;43.33;32.47;;;8.70;99.90;;;;;;5173954;27;20195;-51
2022/03/17 05:35:11;;;;;;;43.67;33.73;;;8.60;99.90;;;;;;5174024;27;20194;-52
2022/03/17 05:37:39;;;;;;;43.67;32.23;;;8.60;99.90;;;;;;5174227;27;20259;-51
2022/03/17 05:40:09;;;;;;;40.83;32.13;;;8.70;99.90;;;;;;5174388;27;20216;-52
2022/03/17 05:42:39;;;;;;;40.80;31.93;;;8.70;99.90;;;;;;5173773;27;20207;-51
2022/03/17 05:45:08;;;;;;;42.23;32.83;;;8.70;99.90;;;;;;5174093;27;20580;-51
2022/03/17 05:47:37;;;;;;;46.03;34.40;;;8.70;99.90;;;;;;5174160;27;20213;-52
2022/03/17 05:50:07;;;;;;;40.80;32.67;;;8.70;99.90;;;;;;5173153;27;20209;-52
2022/03/17 05:52:35;;;;;;;43.80;34.20;;;8.70;99.90;;;;;;5173604;27;20557;-52
2022/03/17 05:55:04;;;;;;;43.10;34.60;;;8.70;99.90;;;;;;5174192;27;20277;-51
2022/03/17 05:57:34;;;;;;;43.43;33.00;;;8.70;99.90;;;;;;5173833;27;20218;-51
2022/03/17 06:00:05;;;;;;;41.47;33.30;;;8.70;99.90;;;;;;5174197;27;20203;-51
2022/03/17 06:02:35;;;;;;;44.07;33.17;;;8.70;99.90;;;;;;5157130;27;20341;-51
2022/03/17 06:05:04;;;;;;;39.97;32.57;;;8.70;99.90;;;;;;5170195;27;20666;-51
2022/03/17 06:07:39;;;;;;;40.77;33.07;;;8.70;99.90;;;;;;5164606;27;20252;-51
2022/03/17 06:10:11;;;;;;;40.23;33.27;;;8.70;99.90;;;;;;5162248;27;20611;-51
2022/03/17 06:12:39;;;;;;;42.07;32.43;;;8.70;99.90;;;;;;5152647;27;20183;-51
2022/03/17 06:15:09;;;;;;;41.03;33.40;;;8.70;99.90;;;;;;5152804;27;20243;-51
2022/03/17 06:17:39;;;;;;;44.67;34.43;;;8.70;99.90;;;;;;5152121;27;20350;-51
2022/03/17 06:20:09;;;;;;;43.23;33.97;;;8.80;99.90;;;;;;5152518;27;20256;-50
2022/03/17 06:22:39;;;;;;;44.90;33.00;;;8.70;99.90;;;;;;5152336;27;20204;-51
2022/03/17 06:25:09;;;;;;;45.17;33.97;;;8.80;99.90;;;;;;5152586;27;20257;-51
2022/03/17 06:27:37;;;;;;;44.60;33.87;;;8.80;99.90;;;;;;5152825;27;20227;-51
2022/03/17 06:30:09;;;;;;;45.70;34.60;;;8.70;99.90;;;;;;5155228;27;20250;-51
2022/03/17 06:32:39;;;;;;;42.93;34.53;;;8.80;99.90;;;;;;5172555;27;20648;-50
2022/03/17 06:35:09;;;;;;;39.97;31.17;;;8.70;99.90;;;;;;5160196;27;20656;-52
2022/03/17 06:37:38;;;;;;;45.97;33.50;;;8.70;99.90;;;;;;5172851;27;20232;-52
2022/03/17 06:40:11;;;;;;;43.43;34.30;;;8.80;99.90;;;;;;5172667;27;20233;-52
2022/03/17 06:42:39;;;;;;;42.17;33.73;;;8.80;99.90;;;;;;5151423;27;20735;-52
2022/03/17 06:45:10;;;;;;;44.27;33.60;;;8.80;99.90;;;;;;5152656;27;20243;-51
2022/03/17 06:47:38;;;;;;;45.17;34.13;;;8.90;99.90;;;;;;5152386;27;20618;-52
2022/03/17 06:50:08;;;;;;;42.17;32.87;;;8.80;99.90;;;;;;5151930;27;20207;-52
2022/03/17 06:52:36;;;;;;;42.30;33.93;;;8.80;99.90;;;;;;5151796;27;20264;-51
2022/03/17 06:55:05;;;;;;;41.50;33.57;;;8.90;99.90;;;;;;5152357;27;20623;-51
2022/03/17 06:57:33;;;;;;;43.27;33.97;;;8.90;99.90;;;;;;5152292;27;20225;-51
2022/03/17 07:00:03;;;;;;;44.47;34.53;;;9.00;99.90;;;;;;5167957;27;20256;-51
2022/03/17 07:02:33;;;;;;;42.43;34.27;;;9.00;99.90;;;;;;5172711;27;20205;-51
2022/03/17 07:05:02;;;;;;;46.17;33.73;;;9.00;99.90;;;;;;5172926;27;20206;-52
2022/03/17 07:07:30;;;;;;;42.37;34.33;;;8.90;99.90;;;;;;5172854;27;20227;-52
2022/03/17 07:09:58;;;;;;;42.90;33.97;;;8.90;99.90;;;;;;5153352;27;20202;-52
2022/03/17 07:12:26;;;;;;;43.93;34.27;;;9.00;99.90;;;;;;5151804;27;20207;-52
2022/03/17 07:14:54;;;;;;;39.60;32.90;;;9.00;99.90;;;;;;5152495;27;20240;-52
2022/03/17 07:17:23;;;;;;;41.97;33.47;;;9.00;99.90;;;;;;5151906;27;20339;-51
2022/03/17 07:22:25;;;;;;;42.23;33.83;;;9.00;99.90;;;;;;5155961;27;20191;-51
2022/03/17 07:24:54;;;;;;;40.77;32.27;;;9.00;99.90;;;;;;5155797;27;20195;-52
2022/03/17 07:27:22;;;;;;;39.27;31.33;;;9.00;99.90;;;;;;5156158;27;20225;-51
2022/03/17 07:29:51;;;;;;;43.60;33.57;;;9.00;99.90;;;;;;5168994;27;20640;-51
2022/03/17 07:32:19;;;;;;;42.53;33.77;;;9.00;99.90;;;;;;5176629;27;20699;-51
2022/03/17 07:34:47;;;;;;;42.70;32.70;;;9.00;99.90;;;;;;5176662;27;20245;-51
2022/03/17 07:37:17;;;;;;;44.17;33.73;;;9.00;99.90;;;;;;5177431;27;20229;-51
2022/03/17 07:39:46;;;;;;;43.97;33.70;;;9.00;99.90;;;;;;5156923;27;20621;-52
2022/03/17 07:42:14;;;;;;;47.80;34.73;;;9.00;99.90;;;;;;5155680;27;20250;-51
2022/03/17 07:44:42;;;;;;;43.40;33.13;;;9.00;99.90;;;;;;5155922;27;20205;-51
2022/03/17 07:47:11;;;;;;;42.77;34.00;;;9.00;99.90;;;;;;5156290;27;20222;-51
2022/03/17 07:49:39;;;;;;;45.30;35.10;;;9.10;99.90;;;;;;5155802;27;20320;-50
2022/03/17 07:52:08;;;;;;;45.07;34.37;;;9.10;99.90;;;;;;5154141;27;20229;-51
2022/03/17 07:54:37;;;;;;;44.20;34.43;;;9.10;99.90;;;;;;5156374;27;20206;-52
2022/03/17 07:57:07;;;;;;;46.17;34.90;;;9.20;99.90;;;;;;5155952;27;20750;-51
2022/03/17 07:59:35;;;;;;;46.67;35.00;;;9.10;99.90;;;;;;5168077;27;20322;-52
2022/03/17 08:02:04;;;;;;;41.47;34.70;;;9.20;99.90;;;;;;5176407;27;20640;-51
2022/03/17 08:04:33;;;;;;;46.73;34.67;;;9.20;99.90;;;;;;5164781;27;20292;-51
2022/03/17 08:07:01;;;;;;;43.63;36.03;;;9.20;99.90;;;;;;5155961;27;20222;-52
2022/03/17 08:09:29;;;;;;;42.73;34.17;;;9.30;99.90;;;;;;5171058;27;20894;-50
2022/03/17 08:11:59;;;;;;;44.77;34.93;;;9.30;99.90;;;;;;5176199;27;20973;-51
2022/03/17 08:14:27;;;;;;;42.73;33.60;;;9.40;99.90;;;;;;5175463;27;20258;-51
2022/03/17 08:16:56;;;;;;;43.37;34.73;;;9.50;99.90;;;;;;5176686;27;20588;-51
2022/03/17 08:19:24;;;;;;;43.87;34.87;;;9.60;99.90;;;;;;5175825;27;20261;-51
2022/03/17 08:21:52;;;;;;;42.87;34.03;;;9.60;99.90;;;;;;5175992;27;20277;-51
2022/03/17 08:24:21;;;;;;;43.73;34.77;;;9.60;99.90;;;;;;5164582;27;20201;-50
2022/03/17 08:26:49;;;;;;;43.70;33.77;;;9.60;99.90;;;;;;5168191;27;20264;-51
2022/03/17 08:29:18;;;;;;;43.13;34.23;;;9.60;99.90;;;;;;5175418;27;20249;-51
2022/03/17 08:31:46;;;;;;;43.30;33.73;;;9.70;99.90;;;;;;5175250;27;20201;-51
2022/03/17 08:34:14;;;;;;;41.03;34.83;;;9.70;99.90;;;;;;5175774;27;20205;-51
2022/03/17 08:36:43;;;;;;;44.20;33.90;;;9.80;99.90;;;;;;5175728;27;20225;-51
2022/03/17 08:39:11;;;;;;;43.60;33.77;;;9.80;99.90;;;;;;5175769;27;20273;-51
2022/03/17 08:41:39;;;;;;;42.90;34.13;;;9.70;99.90;;;;;;5175605;27;20600;-50
2022/03/17 08:44:07;;;;;;;39.87;33.17;;;9.70;99.90;;;;;;5174860;27;20201;-51
2022/03/17 08:49:25;;;;;;;42.63;33.87;;;9.70;99.90;;;;;;5174951;27;20201;-51
2022/03/17 08:51:55;;;;;;;41.80;33.23;;;9.70;99.90;;;;;;5174778;27;20721;-51
2022/03/17 08:54:25;;;;;;;43.53;34.00;;;9.70;99.90;;;;;;5174891;27;20246;-51
2022/03/17 08:56:57;;;;;;;43.57;34.47;;;9.80;99.90;;;;;;5174822;27;20260;-51
2022/03/17 08:59:25;;;;;;;44.03;34.47;;;9.80;99.90;;;;;;5174787;27;20246;-52
2022/03/17 09:01:55;;;;;;;41.17;34.10;;;9.80;99.90;;;;;;5174832;27;20254;-51
2022/03/17 09:04:23;;;;;;;41.50;33.67;;;9.90;99.90;;;;;;5175016;27;20211;-51
2022/03/17 09:06:52;;;;;;;42.47;32.40;;;9.90;99.90;;;;;;5157223;27;20605;-51
2022/03/17 09:09:20;;;;;;;41.83;33.70;;;9.90;99.90;;;;;;5168569;27;20721;-51
2022/03/17 09:11:48;;;;;;;43.00;34.17;;;9.90;99.90;;;;;;5174638;27;20254;-50
2022/03/17 09:14:16;;;;;;;43.07;32.93;;;9.90;99.90;;;;;;5175284;27;20204;-51
2022/03/17 09:16:45;;;;;;;43.80;34.40;;;9.80;99.90;;;;;;5163248;27;20646;-51
2022/03/17 09:19:15;;;;;;;41.07;33.77;;;9.70;99.90;;;;;;5158546;27;20214;-50
2022/03/17 09:21:43;;;;;;;46.27;35.37;;;9.80;99.90;;;;;;5153518;27;20206;-51
2022/03/17 09:24:11;;;;;;;40.57;33.70;;;9.70;99.90;;;;;;5166472;27;20246;-51
2022/03/17 09:26:40;;;;;;;42.87;33.77;;;9.70;99.90;;;;;;5157814;27;20256;-51
2022/03/17 09:29:08;;;;;;;44.67;36.03;;;9.70;99.90;;;;;;5174894;27;20186;-50
2022/03/17 09:31:37;;;;;;;43.67;35.20;;;9.80;99.90;;;;;;5174658;27;20233;-51
2022/03/17 09:34:05;;;;;;;47.33;36.33;;;9.80;99.90;;;;;;5155691;27;20579;-52
2022/03/17 09:36:35;;;;;;;45.70;35.87;;;9.70;99.90;;;;;;5164785;27;20294;-51
2022/03/17 09:41:50;;;;;;;46.23;35.27;;;9.70;99.90;;;;;;5172688;27;20250;-51
2022/03/17 09:44:18;;;;;;;43.97;35.57;;;9.60;99.90;;;;;;5174697;27;20221;-51
2022/03/17 09:46:47;;;;;;;42.13;34.83;;;9.60;99.90;;;;;;5174032;27;20218;-51
2022/03/17 09:49:16;;;;;;;44.37;35.40;;;9.60;99.90;;;;;;5174488;27;20271;-50
2022/03/17 09:51:47;;;;;;;45.27;36.43;;;9.60;99.90;;;;;;5173446;27;20212;-52
2022/03/17 09:54:15;;;;;;;46.57;36.53;;;9.60;99.90;;;;;;5170218;27;20206;-51
2022/03/17 09:56:43;;;;;;;46.77;36.47;;;9.60;99.90;;;;;;5156870;27;20254;-51
2022/03/17 09:59:11;;;;;;;45.50;36.97;;;9.60;99.90;;;;;;5173895;27;20217;-51
2022/03/17 10:01:39;;;;;;;45.93;36.70;;;9.60;99.90;;;;;;5167594;27;20223;-52
2022/03/17 10:04:08;;;;;;;48.70;36.83;;;9.60;99.90;;;;;;5152302;27;20285;-50
2022/03/17 10:06:36;;;;;;;45.40;35.47;;;9.60;99.90;;;;;;5152772;27;20592;-51
2022/03/17 10:09:06;;;;;;;47.77;38.03;;;9.60;99.90;;;;;;5165158;27;20666;-52
2022/03/17 10:11:37;;;;;;;47.90;37.07;;;9.60;99.90;;;;;;5173705;27;20201;-51
2022/03/17 10:14:07;;;;;;;52.13;38.73;;;9.50;99.90;;;;;;5168615;27;20206;-52
2022/03/17 10:16:37;;;;;;;52.07;38.50;;;9.50;99.90;;;;;;5154555;27;20703;-51
2022/03/17 10:19:07;;;;;;;50.50;37.67;;;9.50;99.90;;;;;;5174189;27;20296;-51
2022/03/17 10:21:37;;;;;;;47.03;38.17;;;9.50;99.90;;;;;;5173287;27;20689;-51
2022/03/17 10:24:08;;;;;;;45.47;37.33;;;9.50;99.90;;;;;;5173414;27;20194;-51
2022/03/17 10:26:41;;;;;;;52.27;39.03;;;9.50;99.90;;;;;;5173314;27;20237;-51
2022/03/17 10:29:12;;;;;;;50.13;38.03;;;9.50;99.90;;;;;;5169535;27;20194;-51
2022/03/17 10:32:01;;;;;;;47.73;37.70;;;9.60;99.90;;;;;;5157882;27;20617;-51
2022/03/17 10:34:33;;;;;;;51.00;39.10;;;9.60;99.90;;;;;;5162685;27;20198;-51
2022/03/17 10:37:13;;;;;;;51.10;40.17;;;9.60;99.90;;;;;;5152507;27;20222;-51
2022/03/17 10:39:44;;;;;;;50.17;39.00;;;9.60;99.90;;;;;;5157910;27;20248;-51
2022/03/17 10:42:15;;;;;;;48.83;38.43;;;9.60;99.90;;;;;;5166384;27;20257;-51
2022/03/17 10:44:47;;;;;;;49.77;38.80;;;9.60;99.90;;;;;;5173439;27;20633;-50
2022/03/17 10:47:22;;;;;;;49.80;39.10;;;9.70;99.90;;;;;;5172940;27;20727;-51
2022/03/17 10:50:09;;;;;;;51.10;38.83;;;9.80;99.90;;;;;;5173441;27;20201;-52
2022/03/17 10:52:51;;;;;;;51.57;40.43;;;9.70;99.90;;;;;;5175039;27;20201;-51
2022/03/17 10:55:22;;;;;;;53.57;41.63;;;9.70;99.90;;;;;;5157436;27;20247;-51
2022/03/17 10:57:51;;;;;;;57.53;44.23;;;9.70;99.90;;;;;;5177814;27;20429;-51
2022/03/17 11:00:22;;;;;;;55.40;41.93;;;9.80;99.90;;;;;;5177477;27;20576;-51
2022/03/17 11:02:53;;;;;;;52.67;41.90;;;9.90;99.90;;;;;;5165365;27;20276;-51
2022/03/17 11:05:22;;;;;;;51.50;40.23;;;9.90;99.90;;;;;;5156717;27;20201;-51
2022/03/17 11:07:51;;;;;;;48.97;39.63;;;9.80;99.90;;;;;;5157391;27;20726;-51
2022/03/17 11:10:22;;;;;;;49.77;39.13;;;9.80;99.90;;;;;;5164104;27;20282;-51
2022/03/17 11:12:52;;;;;;;52.43;40.70;;;9.80;99.90;;;;;;5155724;27;20198;-52
2022/03/17 11:15:29;;;;;;;56.60;43.40;;;9.80;99.90;;;;;;5155999;27;20274;-52
2022/03/17 11:18:03;;;;;;;56.70;43.80;;;9.80;99.90;;;;;;5156252;27;20569;-52
2022/03/17 11:20:32;;;;;;;53.90;40.77;;;9.90;99.90;;;;;;5156578;27;20214;-52
2022/03/17 11:23:10;;;;;;;52.70;40.57;;;9.90;99.90;;;;;;5158116;27;20220;-51
2022/03/17 11:25:46;;;;;;;53.10;40.97;;;9.90;99.90;;;;;;5176867;27;20601;-51
2022/03/17 11:28:16;;;;;;;53.10;41.33;;;9.90;99.90;;;;;;5176761;27;20219;-51
2022/03/17 11:30:46;;;;;;;57.27;42.43;;;9.90;99.90;;;;;;5177204;27;20201;-51
2022/03/17 11:33:27;;;;;;;50.83;40.80;;;9.80;99.90;;;;;;5176393;27;20254;-51
2022/03/17 11:35:59;;;;;;;56.83;41.27;;;9.90;99.90;;;;;;5176920;27;20300;-51
2022/03/17 11:38:30;;;;;;;52.40;40.37;;;9.90;99.90;;;;;;5173164;27;20210;-51
2022/03/17 11:41:12;;;;;;;51.87;41.70;;;9.80;99.90;;;;;;5175143;27;20201;-51
2022/03/17 11:43:41;;;;;;;53.40;40.53;;;9.90;99.90;;;;;;5175908;27;20349;-51
2022/03/17 11:46:11;;;;;;;52.73;42.33;;;9.90;99.90;;;;;;5176855;27;20277;-53
2022/03/17 11:48:40;;;;;;;50.70;40.23;;;9.90;99.90;;;;;;5175999;27;20283;-52
2022/03/17 11:51:09;;;;;;;50.63;40.30;;;9.90;99.90;;;;;;5176827;27;20201;-52
2022/03/17 11:53:40;;;;;;;54.03;40.77;;;9.80;99.90;;;;;;5160730;27;20210;-50
2022/03/17 11:56:32;;;;;;;52.73;42.40;;;9.80;99.90;;;;;;5154074;27;20242;-51
2022/03/17 11:59:00;;;;;;;56.27;42.40;;;9.80;99.90;;;;;;5174108;27;20224;-51
2022/03/17 12:01:30;;;;;;;57.60;42.60;;;9.80;99.90;;;;;;5176638;27;20266;-51
2022/03/17 12:03:59;;;;;;;59.77;44.33;;;9.80;99.90;;;;;;5168520;27;20257;-51
2022/03/17 12:06:29;;;;;;;65.17;47.50;;;9.80;99.90;;;;;;5155548;27;20271;-51
2022/03/17 12:09:02;;;;;;;65.57;49.23;;;9.80;99.90;;;;;;5166497;27;20245;-51
2022/03/17 12:11:33;;;;;;;59.13;45.53;;;9.80;99.90;;;;;;5174312;27;20217;-51
2022/03/17 12:14:22;;;;;;;57.00;44.70;;;9.80;99.90;;;;;;5155214;27;20254;-51
2022/03/17 12:16:52;;;;;;;55.80;42.57;;;9.80;99.90;;;;;;5155479;27;20232;-51
2022/03/17 12:19:34;;;;;;;73.87;52.47;;;9.80;99.90;;;;;;5153783;27;20254;-51
2022/03/17 12:22:07;;;;;;;56.77;42.63;;;9.80;99.90;;;;;;5175307;27;20254;-51
2022/03/17 12:24:39;;;;;;;58.10;41.77;;;9.80;99.90;;;;;;5173220;27;20542;-51
2022/03/17 12:27:12;;;;;;;52.93;40.90;;;9.80;99.90;;;;;;5155053;27;20234;-51
2022/03/17 12:29:41;;;;;;;43.70;33.70;;;9.70;99.90;;;;;;5154872;27;20742;-51
2022/03/17 12:32:11;;;;;;;39.07;29.97;;;9.70;99.90;;;;;;5154441;27;20205;-51
2022/03/17 12:34:40;;;;;;;43.70;31.00;;;9.70;99.90;;;;;;5153643;27;20227;-52
2022/03/17 12:37:08;;;;;;;30.30;23.17;;;9.60;99.90;;;;;;5154983;27;20280;-52
2022/03/17 12:39:38;;;;;;;31.23;23.80;;;9.50;99.90;;;;;;5154602;27;20263;-49
2022/03/17 12:42:16;;;;;;;22.43;18.27;;;9.50;99.90;;;;;;5154655;27;20209;-51
2022/03/17 12:45:03;;;;;;;26.17;19.83;;;9.50;99.90;;;;;;5154793;27;20205;-51
2022/03/17 12:47:33;;;;;;;27.10;18.70;;;9.60;99.90;;;;;;5154580;27;20218;-51
2022/03/17 12:50:06;;;;;;;28.33;21.10;;;9.60;99.90;;;;;;5154148;27;20222;-51
2022/03/17 12:52:35;;;;;;;23.90;16.53;;;9.60;99.90;;;;;;5154462;27;20189;-51
2022/03/17 12:55:05;;;;;;;25.70;19.40;;;9.70;99.90;;;;;;5153804;27;20718;-51
2022/03/17 12:57:35;;;;;;;24.20;18.47;;;9.80;99.90;;;;;;5154272;27;20705;-51
2022/03/17 13:00:05;;;;;;;21.77;15.83;;;9.90;99.90;;;;;;5168087;27;20221;-52
2022/03/17 13:02:33;;;;;;;19.70;14.90;;;9.90;99.90;;;;;;5157097;27;20245;-52
2022/03/17 13:06:53;;;;;;;20.40;16.00;;;9.90;99.90;;;;;;5173703;27;20694;-52
2022/03/17 13:07:52;;;;;;;19.73;15.63;;;9.90;99.90;;;;;;5174560;27;20583;-51